Time;durP1;ratioP1;P1;durP2;ratioP2;P2;SDS_P1;SDS_P2;PMS_P1;PMS_P2;Temp;Humidity;BMP_temperature;BMP_pressure;BME280_temperature;BME280_humidity;BME280_pressure;Samples;Min_cycle;Max_cycle;Signal;HPM_P1;HPM_P2
2022/03/24 00:00:30;;;;;;;3.13;2.83;;;20.10;34.50;;;;;;5094177;28;20052;-84
2022/03/24 00:02:56;;;;;;;3.30;3.00;;;20.10;34.50;;;;;;5094107;28;20492;-84
2022/03/24 00:05:21;;;;;;;2.75;2.55;;;20.10;34.50;;;;;;5075527;28;20106;-84
2022/03/24 00:07:47;;;;;;;3.05;2.75;;;20.10;34.50;;;;;;5094063;28;20052;-84
2022/03/24 00:10:13;;;;;;;2.80;2.60;;;20.10;34.50;;;;;;5075820;28;20394;-84
2022/03/24 00:12:39;;;;;;;3.20;2.90;;;20.10;34.50;;;;;;5093890;28;20151;-84
2022/03/24 00:15:06;;;;;;;2.85;2.65;;;20.10;34.50;;;;;;5075915;28;20105;-84
2022/03/24 00:17:32;;;;;;;2.70;2.50;;;20.10;34.60;;;;;;5093542;28;20552;-84
2022/03/24 00:19:58;;;;;;;4.03;2.78;;;20.10;34.50;;;;;;5094147;28;20048;-84
2022/03/24 00:22:24;;;;;;;3.63;3.20;;;20.10;34.50;;;;;;5076127;28;20040;-84
2022/03/24 00:24:50;;;;;;;3.55;2.88;;;20.10;34.60;;;;;;5094125;28;20483;-84
2022/03/24 00:27:16;;;;;;;2.47;2.28;;;20.10;34.60;;;;;;5094159;28;20059;-84
2022/03/24 00:29:45;;;;;;;3.17;2.88;;;20.10;34.60;;;;;;5093619;28;20056;-84
2022/03/24 00:32:11;;;;;;;2.60;2.40;;;20.10;34.50;;;;;;5093692;28;20056;-84
2022/03/24 00:34:38;;;;;;;2.97;2.78;;;20.10;34.60;;;;;;5075530;28;20056;-84
2022/03/24 00:37:08;;;;;;;2.97;2.78;;;20.10;34.60;;;;;;5073906;28;20514;-84
2022/03/24 00:39:34;;;;;;;3.25;2.95;;;20.10;34.60;;;;;;5075323;28;20048;-84
2022/03/24 00:42:01;;;;;;;3.00;2.70;;;20.10;34.60;;;;;;5075316;28;20083;-84
2022/03/24 00:44:28;;;;;;;3.00;2.80;;;20.10;34.60;;;;;;5093529;28;20983;-84
2022/03/24 00:46:54;;;;;;;2.90;2.70;;;20.10;34.60;;;;;;5074119;28;20087;-83
2022/03/24 00:49:21;;;;;;;3.22;2.50;;;20.00;34.60;;;;;;5075473;28;20059;-84
2022/03/24 00:51:50;;;;;;;3.40;2.85;;;20.10;34.60;;;;;;5075134;28;20083;-84
2022/03/24 00:54:18;;;;;;;2.92;2.72;;;20.10;34.60;;;;;;5093149;28;20492;-84
2022/03/24 00:56:45;;;;;;;3.05;2.75;;;20.10;34.60;;;;;;5074980;28;20094;-84
2022/03/24 00:59:11;;;;;;;2.83;2.58;;;20.00;34.50;;;;;;5093278;28;20055;-84
2022/03/24 01:01:39;;;;;;;3.38;2.88;;;20.10;34.50;;;;;;5092939;28;20671;-84
2022/03/24 01:04:06;;;;;;;3.05;2.78;;;20.10;34.50;;;;;;5072669;28;20052;-84
2022/03/24 01:06:33;;;;;;;2.80;2.60;;;20.10;35.10;;;;;;5074680;28;20396;-84
2022/03/24 01:09:03;;;;;;;2.83;2.60;;;20.10;34.50;;;;;;5093163;28;20052;-84
2022/03/24 01:11:29;;;;;;;2.92;2.70;;;20.10;34.60;;;;;;5074098;28;20048;-83
2022/03/24 01:13:54;;;;;;;3.00;2.70;;;20.10;34.60;;;;;;5058122;28;20404;-84
2022/03/24 01:16:23;;;;;;;2.40;2.20;;;20.10;34.60;;;;;;5074237;28;20170;-84
2022/03/24 01:18:50;;;;;;;2.88;2.67;;;20.10;34.50;;;;;;5093026;28;20377;-84
2022/03/24 01:21:16;;;;;;;2.65;2.45;;;20.10;34.50;;;;;;5075221;28;20143;-84
2022/03/24 01:23:44;;;;;;;3.20;2.78;;;20.10;34.50;;;;;;5093255;28;20513;-84
2022/03/24 01:26:11;;;;;;;2.90;2.70;;;20.10;34.50;;;;;;5092878;28;20052;-84
2022/03/24 01:28:39;;;;;;;2.65;2.45;;;20.10;34.50;;;;;;5092595;28;20060;-84
2022/03/24 01:31:05;;;;;;;3.38;2.78;;;20.10;34.50;;;;;;5074503;28;20448;-84
2022/03/24 01:33:30;;;;;;;3.25;2.95;;;20.10;34.50;;;;;;5092793;28;20078;-84
2022/03/24 01:35:57;;;;;;;3.08;2.78;;;20.10;34.50;;;;;;5074667;28;20098;-84
2022/03/24 01:38:23;;;;;;;3.05;2.70;;;20.10;34.50;;;;;;5092440;28;20052;-84
2022/03/24 01:40:49;;;;;;;2.88;2.65;;;20.10;34.50;;;;;;5092722;28;20519;-84
2022/03/24 01:43:17;;;;;;;2.63;2.42;;;20.10;34.50;;;;;;5092709;28;20076;-84
2022/03/24 01:45:45;;;;;;;3.42;2.80;;;20.10;34.50;;;;;;5074502;28;20488;-84
2022/03/24 01:48:14;;;;;;;2.75;2.55;;;20.10;34.50;;;;;;5092444;28;20052;-84
2022/03/24 01:50:43;;;;;;;3.97;3.58;;;20.10;34.50;;;;;;5092607;28;20078;-84
2022/03/24 01:53:12;;;;;;;2.90;2.70;;;20.10;34.50;;;;;;5074151;28;20052;-84
2022/03/24 01:55:39;;;;;;;2.85;2.65;;;20.10;34.60;;;;;;5074353;28;20059;-84
2022/03/24 01:58:05;;;;;;;3.33;3.03;;;20.10;34.60;;;;;;5072804;28;20055;-84
2022/03/24 02:00:32;;;;;;;2.92;2.72;;;20.10;34.60;;;;;;5074503;28;20059;-84
2022/03/24 02:03:02;;;;;;;3.30;3.00;;;20.10;34.50;;;;;;5073323;28;20130;-84
2022/03/24 02:05:36;;;;;;;2.95;2.60;;;20.10;34.60;;;;;;5073135;28;20064;-84
2022/03/24 02:08:03;;;;;;;3.33;3.03;;;20.00;34.50;;;;;;5073543;28;20135;-84
2022/03/24 02:10:31;;;;;;;3.25;2.80;;;20.00;34.60;;;;;;5073021;28;20048;-84
2022/03/24 02:12:57;;;;;;;2.83;2.60;;;20.10;34.60;;;;;;5055592;28;20048;-84
2022/03/24 02:15:24;;;;;;;3.08;2.83;;;20.10;34.60;;;;;;5076347;28;20052;-84
2022/03/24 02:17:52;;;;;;;3.20;2.90;;;20.00;34.50;;;;;;5076267;28;20067;-84
2022/03/24 02:20:21;;;;;;;2.83;2.58;;;20.10;34.60;;;;;;5077473;28;20384;-84
2022/03/24 02:22:48;;;;;;;2.83;2.63;;;20.10;34.60;;;;;;5077551;28;20044;-84
2022/03/24 02:25:13;;;;;;;2.75;2.55;;;20.00;34.50;;;;;;5095948;28;20078;-84
2022/03/24 02:27:40;;;;;;;3.38;2.58;;;20.10;34.60;;;;;;5095454;28;20483;-84
2022/03/24 02:30:06;;;;;;;2.92;2.72;;;20.10;34.60;;;;;;5095690;28;20048;-84
2022/03/24 02:32:32;;;;;;;2.72;2.53;;;20.00;34.50;;;;;;5077555;28;20059;-84
2022/03/24 02:34:58;;;;;;;2.72;2.53;;;20.10;34.60;;;;;;5095467;28;20491;-84
2022/03/24 02:37:25;;;;;;;3.10;2.70;;;20.00;34.60;;;;;;5095479;28;20067;-84
2022/03/24 02:39:59;;;;;;;3.20;2.90;;;20.10;34.60;;;;;;5095419;28;20495;-84
2022/03/24 02:42:28;;;;;;;3.08;2.78;;;20.00;34.50;;;;;;5095805;28;20044;-84
2022/03/24 02:44:56;;;;;;;2.95;2.70;;;20.00;34.50;;;;;;5095390;28;20040;-84
2022/03/24 02:47:23;;;;;;;3.10;2.90;;;20.00;34.60;;;;;;5095262;28;20407;-84
2022/03/24 02:49:52;;;;;;;2.70;2.50;;;20.00;34.60;;;;;;5060049;28;20055;-84
2022/03/24 02:52:18;;;;;;;3.15;2.78;;;20.10;34.60;;;;;;5060334;28;20062;-84
2022/03/24 02:54:45;;;;;;;3.03;2.67;;;20.00;34.60;;;;;;5060364;28;20056;-84
2022/03/24 02:57:11;;;;;;;2.55;2.35;;;20.00;34.60;;;;;;5095129;28;20048;-84
2022/03/24 02:59:37;;;;;;;2.65;2.45;;;20.00;34.60;;;;;;5095216;28;20109;-84
2022/03/24 03:02:08;;;;;;;3.28;2.97;;;20.00;34.60;;;;;;5095056;28;20088;-84
2022/03/24 03:04:34;;;;;;;;;;;20.00;34.60;;;;;;5095919;28;20056;-84
2022/03/24 03:07:02;;;;;;;2.50;2.30;;;20.00;34.60;;;;;;5094927;28;19916;-84
2022/03/24 03:09:28;;;;;;;2.97;2.78;;;20.00;34.60;;;;;;5095092;28;20075;-84
2022/03/24 03:11:54;;;;;;;2.85;2.65;;;20.10;34.60;;;;;;5094936;28;20048;-84
2022/03/24 03:14:20;;;;;;;3.03;2.72;;;20.00;34.60;;;;;;5076711;28;20056;-84
2022/03/24 03:16:46;;;;;;;2.83;2.55;;;20.00;34.60;;;;;;5094783;28;20066;-84
2022/03/24 03:19:14;;;;;;;2.90;2.70;;;20.00;34.60;;;;;;5094721;28;20438;-84
2022/03/24 03:21:41;;;;;;;2.90;2.70;;;20.00;34.60;;;;;;5094792;28;20110;-84
2022/03/24 03:24:08;;;;;;;2.58;2.38;;;20.00;34.60;;;;;;5094866;28;20052;-84
2022/03/24 03:26:34;;;;;;;2.80;2.60;;;20.00;34.60;;;;;;5093987;28;20048;-84
2022/03/24 03:29:00;;;;;;;3.13;2.80;;;20.00;34.60;;;;;;5094753;28;20411;-84
2022/03/24 03:31:26;;;;;;;3.10;2.88;;;20.00;34.60;;;;;;5057623;28;20082;-84
2022/03/24 03:33:52;;;;;;;3.00;2.70;;;20.00;34.70;;;;;;5076459;28;20455;-84
2022/03/24 03:36:19;;;;;;;2.75;2.55;;;20.00;34.70;;;;;;5094556;28;20067;-84
2022/03/24 03:38:45;;;;;;;3.03;2.72;;;20.00;34.60;;;;;;5074872;28;20063;-84
2022/03/24 03:41:12;;;;;;;3.05;2.75;;;20.00;34.50;;;;;;5094585;28;20052;-84
2022/03/24 03:43:38;;;;;;;3.15;2.88;;;20.10;34.50;;;;;;5094846;28;20084;-84
2022/03/24 03:46:03;;;;;;;2.60;2.40;;;20.20;34.40;;;;;;5094470;28;20124;-84
2022/03/24 03:48:30;;;;;;;3.75;2.70;;;20.20;34.30;;;;;;5094468;28;20052;-84
2022/03/24 03:50:56;;;;;;;2.65;2.45;;;20.20;34.20;;;;;;5075847;28;20055;-84
2022/03/24 03:53:23;;;;;;;2.90;2.70;;;20.30;34.20;;;;;;5094326;28;20055;-84
2022/03/24 03:55:50;;;;;;;3.42;2.75;;;20.30;34.10;;;;;;5094614;28;20442;-84
2022/03/24 03:58:17;;;;;;;3.22;2.92;;;20.40;34.10;;;;;;5094199;28;20110;-84
2022/03/24 04:00:53;;;;;;;2.97;2.78;;;20.40;34.10;;;;;;5094242;28;20380;-84
2022/03/24 04:03:20;;;;;;;2.47;2.28;;;20.40;34.00;;;;;;5094255;28;20075;-84
2022/03/24 04:05:47;;;;;;;2.83;2.63;;;20.40;34.00;;;;;;5072151;28;20492;-84
2022/03/24 04:08:15;;;;;;;3.55;3.15;;;20.40;34.00;;;;;;5093907;28;20048;-84
2022/03/24 04:10:42;;;;;;;2.80;2.60;;;20.50;34.00;;;;;;5076166;28;20087;-84
2022/03/24 04:13:07;;;;;;;2.70;2.50;;;20.50;33.90;;;;;;5093931;28;20094;-84
2022/03/24 04:15:34;;;;;;;3.00;2.70;;;20.50;33.90;;;;;;5074025;28;20138;-84
2022/03/24 04:18:00;;;;;;;2.80;2.60;;;20.60;33.90;;;;;;5093373;28;20064;-84
2022/03/24 04:20:27;;;;;;;2.80;2.55;;;20.60;33.80;;;;;;5074579;28;20409;-84
2022/03/24 04:22:54;;;;;;;3.83;3.00;;;20.60;33.80;;;;;;5093513;28;20195;-84
2022/03/24 04:25:21;;;;;;;2.92;2.65;;;20.70;33.70;;;;;;5075078;28;20920;-85
2022/03/24 04:27:47;;;;;;;2.92;2.63;;;20.70;33.70;;;;;;5093396;28;20138;-84
2022/03/24 04:30:13;;;;;;;2.70;2.50;;;20.80;33.70;;;;;;5075444;28;20060;-84
2022/03/24 04:32:39;;;;;;;2.97;2.70;;;20.80;33.60;;;;;;5094153;28;20059;-84
2022/03/24 04:35:08;;;;;;;2.85;2.65;;;20.80;33.60;;;;;;5093960;28;20404;-84
2022/03/24 04:37:35;;;;;;;2.70;2.50;;;20.90;33.50;;;;;;5075047;28;20048;-84
2022/03/24 04:40:00;;;;;;;2.83;2.60;;;20.90;33.50;;;;;;5075348;28;20048;-84
2022/03/24 04:42:26;;;;;;;2.88;2.65;;;20.90;33.40;;;;;;5075439;28;20071;-84
2022/03/24 04:44:52;;;;;;;2.92;2.70;;;21.00;33.50;;;;;;5074549;28;20123;-84
2022/03/24 04:47:17;;;;;;;3.53;3.22;;;21.00;33.40;;;;;;5093373;28;20051;-84
2022/03/24 04:49:43;;;;;;;2.80;2.60;;;21.00;33.40;;;;;;5075189;28;20395;-84
2022/03/24 04:52:08;;;;;;;2.60;2.40;;;21.00;33.40;;;;;;5093367;28;20062;-84
2022/03/24 04:54:35;;;;;;;2.63;2.42;;;21.00;33.30;;;;;;5093465;28;20082;-84
2022/03/24 04:57:00;;;;;;;2.40;2.20;;;21.10;33.90;;;;;;5093385;28;20083;-84
2022/03/24 04:59:26;;;;;;;2.60;2.40;;;21.00;33.30;;;;;;5093332;28;20079;-84
2022/03/24 05:01:52;;;;;;;2.85;2.60;;;21.10;33.40;;;;;;5074970;28;20056;-84
2022/03/24 05:04:17;;;;;;;3.03;2.70;;;21.10;33.40;;;;;;5075269;28;20071;-84
2022/03/24 05:06:43;;;;;;;3.00;2.70;;;21.00;33.30;;;;;;5093157;28;20048;-84
2022/03/24 05:09:09;;;;;;;2.75;2.55;;;21.00;33.30;;;;;;5092988;28;20056;-84
2022/03/24 05:11:35;;;;;;;3.13;2.75;;;21.00;33.40;;;;;;5093443;28;20132;-84
2022/03/24 05:14:01;;;;;;;3.65;2.70;;;21.00;33.40;;;;;;5092913;28;20131;-84
2022/03/24 05:16:27;;;;;;;2.80;2.60;;;21.00;33.40;;;;;;5093172;28;21632;-84
2022/03/24 05:18:53;;;;;;;2.65;2.45;;;21.00;33.40;;;;;;5092736;28;20044;-84
2022/03/24 05:21:19;;;;;;;2.85;2.63;;;21.00;33.50;;;;;;5093069;28;20040;-84
2022/03/24 05:23:45;;;;;;;2.85;2.65;;;21.00;33.50;;;;;;5092933;28;20055;-84
2022/03/24 05:26:11;;;;;;;2.58;2.38;;;20.90;33.50;;;;;;5093495;28;20127;-84
2022/03/24 05:28:37;;;;;;;2.85;2.58;;;20.90;33.50;;;;;;5074633;28;20040;-84
2022/03/24 05:31:02;;;;;;;2.97;2.63;;;20.90;33.50;;;;;;5093147;28;20062;-84
2022/03/24 05:33:28;;;;;;;2.80;2.50;;;20.90;33.50;;;;;;5092762;28;20047;-84
2022/03/24 05:35:55;;;;;;;3.22;2.92;;;20.90;33.50;;;;;;5074552;28;20158;-84
2022/03/24 05:38:22;;;;;;;2.90;2.70;;;20.90;34.00;;;;;;5092722;28;20059;-84
2022/03/24 05:40:49;;;;;;;3.15;2.85;;;20.90;33.50;;;;;;5092675;28;20075;-84
2022/03/24 05:43:16;;;;;;;2.53;2.33;;;20.90;33.40;;;;;;5092668;28;20071;-84
2022/03/24 05:45:43;;;;;;;2.80;2.60;;;20.90;33.50;;;;;;5074465;28;20086;-84
2022/03/24 05:48:09;;;;;;;2.92;2.67;;;20.90;33.40;;;;;;5072188;28;20053;-84
2022/03/24 05:51:01;;;;;;;3.10;2.60;;;21.00;33.50;;;;;;5074380;28;20048;-84
2022/03/24 05:53:30;;;;;;;2.35;2.17;;;21.00;34.00;;;;;;5074954;28;20044;-84
2022/03/24 05:55:56;;;;;;;2.90;2.55;;;21.00;33.30;;;;;;5072671;28;20167;-84
2022/03/24 05:58:21;;;;;;;2.80;2.60;;;21.00;33.30;;;;;;5093082;28;20056;-84
2022/03/24 06:00:47;;;;;;;2.65;2.38;;;21.10;33.20;;;;;;5092530;28;20072;-84
2022/03/24 06:03:15;;;;;;;3.25;2.95;;;21.20;33.20;;;;;;5092563;28;20059;-84
2022/03/24 06:05:43;;;;;;;2.90;2.60;;;21.20;33.20;;;;;;5072593;28;20053;-84
2022/03/24 06:08:11;;;;;;;2.50;2.30;;;21.20;33.10;;;;;;5092343;28;20086;-84
2022/03/24 06:10:39;;;;;;;2.72;2.53;;;21.20;33.00;;;;;;5092376;28;20055;-84
2022/03/24 06:13:05;;;;;;;3.03;2.72;;;21.20;33.00;;;;;;5091886;28;20044;-84
2022/03/24 06:15:31;;;;;;;3.15;2.60;;;21.30;33.10;;;;;;5072479;28;20120;-84
2022/03/24 06:17:57;;;;;;;3.05;2.75;;;21.30;33.00;;;;;;5091879;28;20165;-84
2022/03/24 06:20:22;;;;;;;2.83;2.63;;;21.30;32.90;;;;;;5091656;28;20056;-84
2022/03/24 06:22:50;;;;;;;3.25;2.90;;;21.30;32.90;;;;;;5091940;28;20094;-84
2022/03/24 06:25:16;;;;;;;3.30;3.00;;;21.40;32.90;;;;;;5092086;28;20083;-84
2022/03/24 06:27:42;;;;;;;3.22;2.92;;;21.40;32.80;;;;;;5092025;28;20079;-84
2022/03/24 06:30:08;;;;;;;3.05;2.78;;;21.50;32.70;;;;;;5073911;28;20052;-85
2022/03/24 06:32:34;;;;;;;2.92;2.65;;;21.50;32.70;;;;;;5091872;28;20090;-84
2022/03/24 06:35:01;;;;;;;2.85;2.65;;;21.60;32.70;;;;;;5092046;28;20084;-84
2022/03/24 06:37:27;;;;;;;3.40;2.70;;;21.60;32.60;;;;;;5073972;28;20054;-84
2022/03/24 06:39:53;;;;;;;2.80;2.60;;;21.70;32.60;;;;;;5091531;28;20089;-84
2022/03/24 06:42:19;;;;;;;2.42;2.22;;;21.70;32.50;;;;;;5091684;28;20147;-84
2022/03/24 06:44:45;;;;;;;3.30;3.00;;;21.70;32.50;;;;;;5091989;28;20050;-84
2022/03/24 06:47:11;;;;;;;3.10;2.88;;;21.80;32.50;;;;;;5055212;28;20056;-84
2022/03/24 06:49:36;;;;;;;2.95;2.75;;;21.80;32.40;;;;;;5091636;28;20056;-84
2022/03/24 06:52:02;;;;;;;2.75;2.55;;;21.80;32.30;;;;;;5073572;28;20052;-84
2022/03/24 06:54:28;;;;;;;3.22;2.90;;;21.90;32.30;;;;;;5091608;28;20472;-84
2022/03/24 06:56:53;;;;;;;2.97;2.78;;;21.90;32.30;;;;;;5091711;28;20044;-84
2022/03/24 06:59:19;;;;;;;3.85;3.47;;;21.90;32.20;;;;;;5091533;28;20143;-84
2022/03/24 07:01:44;;;;;;;3.35;3.05;;;21.90;32.10;;;;;;5093639;28;20078;-84
2022/03/24 07:04:10;;;;;;;2.85;2.58;;;22.00;32.10;;;;;;5074878;28;20087;-84
2022/03/24 07:06:35;;;;;;;2.83;2.63;;;22.00;32.10;;;;;;5095278;28;20492;-83
2022/03/24 07:09:01;;;;;;;3.20;2.90;;;22.00;32.00;;;;;;5075652;28;20474;-83
2022/03/24 07:11:26;;;;;;;3.03;2.72;;;22.10;32.00;;;;;;5094887;28;20403;-83
2022/03/24 07:13:52;;;;;;;2.95;2.65;;;22.10;32.00;;;;;;5094757;28;20399;-83
2022/03/24 07:16:17;;;;;;;3.22;2.88;;;22.10;31.90;;;;;;5094488;28;20120;-83
2022/03/24 07:18:43;;;;;;;2.70;2.50;;;22.20;31.90;;;;;;5094637;28;20446;-83
2022/03/24 07:21:10;;;;;;;3.15;2.85;;;22.20;31.90;;;;;;5094376;28;20059;-83
2022/03/24 07:23:35;;;;;;;3.28;2.97;;;22.20;31.90;;;;;;5094643;28;20044;-83
2022/03/24 07:26:02;;;;;;;3.03;2.72;;;22.20;31.80;;;;;;5094774;28;20101;-84
2022/03/24 07:28:27;;;;;;;3.00;2.70;;;22.20;31.80;;;;;;5094511;28;20544;-83
2022/03/24 07:30:53;;;;;;;2.90;2.70;;;22.20;31.70;;;;;;5076186;28;20131;-83
2022/03/24 07:33:20;;;;;;;2.90;2.70;;;22.30;31.80;;;;;;5094517;28;20043;-83
2022/03/24 07:35:48;;;;;;;3.22;3.00;;;22.30;31.70;;;;;;5094716;28;20404;-83
2022/03/24 07:38:16;;;;;;;2.90;2.70;;;22.30;31.70;;;;;;5076372;28;20388;-83
2022/03/24 07:40:43;;;;;;;3.20;2.90;;;22.30;31.70;;;;;;5094466;28;20048;-83
2022/03/24 07:43:09;;;;;;;3.10;2.80;;;22.30;31.70;;;;;;5094360;28;20109;-83
2022/03/24 07:45:38;;;;;;;3.38;3.00;;;22.30;31.80;;;;;;5094129;28;20052;-83
2022/03/24 07:48:14;;;;;;;3.20;2.92;;;22.30;31.80;;;;;;5094218;28;20109;-83
2022/03/24 07:50:42;;;;;;;3.17;2.88;;;22.30;31.80;;;;;;5076058;28;20510;-83
2022/03/24 07:53:28;;;;;;;3.05;2.78;;;22.30;31.80;;;;;;5075740;28;20052;-83
2022/03/24 07:55:56;;;;;;;2.65;2.45;;;22.20;31.80;;;;;;5055680;28;20048;-83
2022/03/24 07:58:23;;;;;;;3.35;3.05;;;22.20;31.80;;;;;;5094068;28;20109;-83
2022/03/24 08:00:50;;;;;;;3.63;2.97;;;22.20;31.90;;;;;;5073989;28;20056;-83
2022/03/24 08:03:19;;;;;;;3.45;3.15;;;22.20;31.80;;;;;;5094123;28;20086;-83
2022/03/24 08:05:47;;;;;;;3.15;2.85;;;22.20;31.90;;;;;;5093818;28;20404;-83
2022/03/24 08:08:14;;;;;;;3.15;2.85;;;22.20;31.90;;;;;;5094215;28;20052;-83
2022/03/24 08:10:42;;;;;;;3.10;2.90;;;22.10;31.90;;;;;;5093871;28;20063;-83
2022/03/24 08:13:09;;;;;;;3.17;2.85;;;22.10;31.90;;;;;;5073676;28;20044;-83
2022/03/24 08:15:36;;;;;;;3.13;2.88;;;22.10;32.00;;;;;;5073389;28;20056;-83
2022/03/24 08:18:04;;;;;;;3.08;2.88;;;22.10;32.00;;;;;;5075345;28;20075;-83
2022/03/24 08:20:33;;;;;;;3.25;2.95;;;22.10;32.00;;;;;;5093496;28;20499;-83
2022/03/24 08:23:00;;;;;;;3.40;3.10;;;22.00;32.10;;;;;;5093191;28;20044;-83
2022/03/24 08:25:25;;;;;;;3.25;2.95;;;22.00;32.20;;;;;;5092081;28;20056;-83
2022/03/24 08:27:51;;;;;;;3.08;2.88;;;21.90;32.20;;;;;;5093494;28;20051;-83
2022/03/24 08:30:17;;;;;;;3.30;3.00;;;21.90;32.20;;;;;;5093315;28;20052;-83
2022/03/24 08:32:42;;;;;;;3.15;2.92;;;21.90;32.30;;;;;;5093440;28;20048;-83
2022/03/24 08:35:09;;;;;;;4.13;3.42;;;21.80;32.30;;;;;;5093351;28;20385;-83
2022/03/24 08:37:35;;;;;;;3.10;2.85;;;21.80;32.30;;;;;;5058698;28;20135;-83
2022/03/24 08:40:01;;;;;;;3.10;2.80;;;21.80;32.30;;;;;;5073263;28;20461;-83
2022/03/24 08:42:27;;;;;;;3.42;3.00;;;21.80;32.40;;;;;;5093523;28;20135;-83
2022/03/24 08:44:53;;;;;;;3.13;2.80;;;21.80;32.40;;;;;;5093499;28;20514;-83
2022/03/24 08:47:19;;;;;;;3.63;3.10;;;21.80;32.40;;;;;;5075435;28;20060;-83
2022/03/24 08:49:44;;;;;;;2.95;2.75;;;21.80;32.40;;;;;;5074975;28;20055;-83
2022/03/24 08:52:10;;;;;;;3.70;3.40;;;21.80;32.50;;;;;;5093199;28;20527;-83
2022/03/24 08:54:36;;;;;;;3.10;2.85;;;21.70;32.40;;;;;;5093409;28;20052;-83
2022/03/24 08:57:02;;;;;;;3.75;3.28;;;21.70;32.40;;;;;;5093534;28;20047;-83
2022/03/24 08:59:27;;;;;;;3.40;3.10;;;21.70;32.40;;;;;;5092967;28;20056;-83
2022/03/24 09:01:53;;;;;;;3.03;2.80;;;21.70;32.50;;;;;;5093058;28;20047;-83
2022/03/24 09:04:20;;;;;;;3.47;3.17;;;21.70;32.50;;;;;;5093064;28;20403;-83
2022/03/24 09:06:48;;;;;;;3.30;3.00;;;21.70;32.50;;;;;;5093235;28;20048;-82
2022/03/24 09:09:14;;;;;;;3.30;3.00;;;21.70;32.50;;;;;;5092936;28;20059;-83
2022/03/24 09:11:40;;;;;;;3.05;2.83;;;21.70;32.50;;;;;;5093008;28;20048;-83
2022/03/24 09:14:06;;;;;;;3.25;3.00;;;21.70;33.10;;;;;;5074786;28;20048;-83
2022/03/24 09:16:32;;;;;;;3.28;2.97;;;21.70;32.50;;;;;;5092821;28;20059;-83
2022/03/24 09:18:58;;;;;;;3.08;2.83;;;21.60;32.50;;;;;;5074604;28;20138;-83
2022/03/24 09:21:23;;;;;;;3.15;2.90;;;21.70;32.60;;;;;;5092481;28;20048;-83
2022/03/24 09:23:49;;;;;;;3.42;3.13;;;21.70;32.60;;;;;;5073534;28;20050;-83
2022/03/24 09:26:14;;;;;;;3.58;3.28;;;21.60;32.50;;;;;;5057737;28;20142;-83
2022/03/24 09:28:41;;;;;;;3.58;3.28;;;21.60;32.60;;;;;;5073057;28;20052;-83
2022/03/24 09:31:06;;;;;;;3.45;3.13;;;21.70;32.60;;;;;;5092431;28;20047;-83
2022/03/24 09:33:32;;;;;;;3.60;3.20;;;21.70;32.50;;;;;;5074480;28;20055;-83
2022/03/24 09:35:58;;;;;;;4.43;3.88;;;21.60;32.50;;;;;;5092393;28;20523;-83
2022/03/24 09:38:25;;;;;;;3.83;3.40;;;21.60;32.50;;;;;;5092491;28;20044;-83
2022/03/24 09:40:53;;;;;;;3.80;3.42;;;21.60;32.50;;;;;;5074926;28;20047;-83
2022/03/24 09:43:22;;;;;;;5.07;3.50;;;21.60;32.50;;;;;;5074207;28;20044;-83
2022/03/24 09:45:48;;;;;;;3.40;3.10;;;21.60;32.50;;;;;;5074578;28;20071;-83
2022/03/24 09:48:15;;;;;;;3.80;3.33;;;21.70;32.50;;;;;;5092342;28;20051;-83
2022/03/24 09:50:44;;;;;;;4.25;3.60;;;21.60;32.50;;;;;;5092272;28;20153;-83
2022/03/24 09:53:11;;;;;;;4.88;3.75;;;21.60;32.50;;;;;;5074230;28;20132;-83
2022/03/24 09:55:38;;;;;;;4.00;3.58;;;21.60;32.50;;;;;;5088523;28;20060;-83
2022/03/24 09:58:06;;;;;;;3.95;3.55;;;21.60;32.50;;;;;;5073502;28;20490;-83
2022/03/24 10:00:32;;;;;;;5.15;3.95;;;21.60;32.60;;;;;;5092139;28;20078;-83
2022/03/24 10:03:18;;;;;;;4.53;3.40;;;21.60;32.60;;;;;;5092111;28;20531;-83
2022/03/24 10:05:56;;;;;;;5.57;3.55;;;21.60;32.60;;;;;;5092168;28;20052;-83
2022/03/24 10:08:22;;;;;;;3.63;3.33;;;21.60;32.70;;;;;;5072786;28;20064;-83
2022/03/24 10:10:47;;;;;;;4.07;3.67;;;21.60;32.70;;;;;;5092002;28;20148;-83
2022/03/24 10:13:24;;;;;;;3.85;3.45;;;21.60;32.70;;;;;;5073258;28;20502;-81
2022/03/24 10:15:50;;;;;;;3.55;3.25;;;21.50;32.60;;;;;;5090217;28;20558;-81
2022/03/24 10:18:17;;;;;;;4.35;3.95;;;21.50;32.60;;;;;;5072885;28;20220;-80
2022/03/24 10:20:44;;;;;;;4.82;4.30;;;21.60;32.70;;;;;;5069294;28;20052;-81
2022/03/24 10:23:13;;;;;;;4.30;3.90;;;21.60;32.60;;;;;;5054145;28;20052;-79
2022/03/24 10:25:40;;;;;;;5.40;4.43;;;21.60;32.60;;;;;;5072864;28;20079;-79
2022/03/24 10:28:12;;;;;;;4.97;4.43;;;21.60;32.60;;;;;;5090088;28;20052;-79
2022/03/24 10:30:49;;;;;;;4.53;4.13;;;21.50;32.60;;;;;;5071909;28;20389;-79
2022/03/24 10:33:31;;;;;;;5.63;4.03;;;21.50;32.60;;;;;;5071001;28;20044;-78
2022/03/24 10:36:06;;;;;;;4.45;3.88;;;21.50;32.60;;;;;;5092475;28;20090;-78
2022/03/24 10:38:33;;;;;;;6.15;3.90;;;21.60;32.70;;;;;;5076031;28;20048;-79
2022/03/24 10:41:12;;;;;;;5.55;4.30;;;21.60;32.70;;;;;;5060407;28;20060;-79
2022/03/24 10:43:38;;;;;;;4.97;4.18;;;21.60;32.70;;;;;;5093567;28;20048;-77
2022/03/24 10:46:18;;;;;;;4.47;4.07;;;21.60;32.70;;;;;;5058608;28;20048;-78
2022/03/24 10:48:44;;;;;;;7.45;3.80;;;21.60;32.80;;;;;;5095114;28;20060;-78
2022/03/24 10:51:10;;;;;;;7.53;4.28;;;21.60;32.70;;;;;;5060253;28;20052;-79
2022/03/24 10:53:41;;;;;;;4.15;3.75;;;21.60;32.70;;;;;;5058614;28;20143;-79
2022/03/24 10:56:17;;;;;;;5.20;4.05;;;21.60;32.70;;;;;;5076852;28;20105;-79
2022/03/24 10:58:47;;;;;;;4.40;4.00;;;21.60;32.70;;;;;;5076430;28;20503;-79
2022/03/24 11:01:17;;;;;;;4.20;3.80;;;21.60;32.70;;;;;;5059881;28;20054;-78
2022/03/24 11:03:44;;;;;;;5.63;3.88;;;21.60;32.70;;;;;;5094904;28;20139;-78
2022/03/24 11:06:18;;;;;;;4.70;4.30;;;21.60;32.70;;;;;;5076407;28;20047;-79
2022/03/24 11:08:50;;;;;;;5.88;4.32;;;21.60;32.70;;;;;;5076206;28;20051;-78
2022/03/24 11:11:16;;;;;;;4.88;4.40;;;21.60;32.70;;;;;;5094263;28;20120;-79
2022/03/24 11:13:52;;;;;;;5.15;4.38;;;21.60;32.70;;;;;;5094226;28;20482;-79
2022/03/24 11:16:27;;;;;;;4.90;3.65;;;21.60;32.70;;;;;;5094272;28;20139;-79
2022/03/24 11:18:55;;;;;;;5.40;3.95;;;21.60;32.70;;;;;;5093980;28;20056;-79
2022/03/24 11:21:31;;;;;;;4.20;3.80;;;21.60;32.70;;;;;;5074670;28;20044;-79
2022/03/24 11:23:57;;;;;;;4.20;3.78;;;21.60;32.70;;;;;;5091873;28;20044;-78
2022/03/24 11:26:24;;;;;;;4.93;4.20;;;21.60;32.70;;;;;;5091747;28;20426;-78
2022/03/24 11:28:53;;;;;;;5.38;4.32;;;21.60;32.70;;;;;;5056903;28;20052;-78
2022/03/24 11:31:19;;;;;;;4.35;3.95;;;21.60;32.70;;;;;;5089548;28;20071;-79
2022/03/24 11:33:48;;;;;;;4.40;4.00;;;21.60;32.70;;;;;;5073487;28;20486;-80
2022/03/24 11:36:17;;;;;;;4.80;3.85;;;21.60;32.80;;;;;;5057916;28;20070;-78
2022/03/24 11:38:46;;;;;;;4.57;3.92;;;21.60;32.80;;;;;;5074912;28;20167;-79
2022/03/24 11:41:26;;;;;;;4.13;3.72;;;21.50;32.70;;;;;;5058943;28;20048;-78
2022/03/24 11:43:55;;;;;;;4.10;3.70;;;21.60;32.80;;;;;;5094219;28;20040;-78
2022/03/24 11:46:30;;;;;;;4.50;3.92;;;21.60;32.80;;;;;;5074778;28;20432;-80
2022/03/24 11:49:20;;;;;;;4.38;3.83;;;21.60;32.70;;;;;;5075547;28;20143;-79
2022/03/24 11:51:49;;;;;;;4.03;3.63;;;21.60;33.30;;;;;;5059020;28;20100;-78
2022/03/24 11:54:28;;;;;;;4.20;3.80;;;21.60;32.70;;;;;;5092331;28;20138;-78
2022/03/24 11:57:22;;;;;;;4.57;3.97;;;21.60;32.70;;;;;;5058760;28;20344;-78
2022/03/24 11:59:49;;;;;;;4.50;4.05;;;21.60;32.70;;;;;;5074974;28;20064;-78
2022/03/24 12:02:19;;;;;;;5.20;3.92;;;21.60;32.70;;;;;;5093799;28;20055;-78
2022/03/24 12:04:58;;;;;;;6.82;4.18;;;21.60;32.70;;;;;;5075659;28;20085;-79
2022/03/24 12:07:25;;;;;;;5.82;4.18;;;21.60;32.80;;;;;;5093683;28;20058;-77
2022/03/24 12:09:56;;;;;;;5.07;4.20;;;21.60;32.70;;;;;;5074606;28;20148;-77
2022/03/24 12:12:22;;;;;;;5.15;4.65;;;21.60;32.70;;;;;;5075085;28;20044;-77
2022/03/24 12:14:48;;;;;;;4.82;4.03;;;21.60;32.70;;;;;;5058586;28;20201;-77
2022/03/24 12:17:28;;;;;;;4.55;4.13;;;21.60;32.70;;;;;;5092622;28;20107;-77
2022/03/24 12:19:55;;;;;;;4.30;3.90;;;21.60;32.80;;;;;;5092164;28;20048;-77
2022/03/24 12:22:29;;;;;;;7.65;4.97;;;21.60;32.80;;;;;;5073733;28;20040;-77
2022/03/24 12:25:00;;;;;;;4.13;3.72;;;21.60;32.80;;;;;;5058309;28;20425;-77
2022/03/24 12:27:31;;;;;;;4.32;3.92;;;21.60;32.80;;;;;;5093455;28;20140;-77
2022/03/24 12:30:13;;;;;;;9.27;4.72;;;21.60;32.80;;;;;;5093344;28;20050;-77
2022/03/24 12:32:40;;;;;;;5.55;4.72;;;21.60;32.80;;;;;;5074789;28;20051;-77
2022/03/24 12:35:06;;;;;;;6.35;4.43;;;21.60;32.80;;;;;;5093053;28;20055;-78
2022/03/24 12:37:35;;;;;;;5.07;4.50;;;21.60;32.80;;;;;;5074627;28;20051;-80
2022/03/24 12:40:09;;;;;;;4.72;3.88;;;21.60;32.80;;;;;;5093294;28;20151;-79
2022/03/24 12:42:49;;;;;;;5.72;4.47;;;21.60;32.80;;;;;;5093096;28;20044;-77
2022/03/24 12:45:36;;;;;;;4.93;4.20;;;21.60;32.80;;;;;;5091914;28;20411;-77
2022/03/24 12:48:10;;;;;;;5.18;4.28;;;21.60;32.80;;;;;;5092043;28;20056;-77
2022/03/24 12:50:47;;;;;;;4.82;4.15;;;21.60;32.80;;;;;;5091048;28;20055;-77